MMVR/VER METAR and TAF weather

Enter ICAO airport designator
Station Type Date Time Source
MMVR METAR 2019/10/23 20:43 UTC NOAA

MMVR 232043Z 02010KT 7SM BKN040 OVC070 27/23 A2985 RMK SLP089 57027 972 8/67/ HZY DSNT TCU W


Station Type Date Time Source
MMVR Decoded METAR 2019/10/23 20:43 UTC NOAA

Veracruz / Las Bajadas / General Heriberto Jara, Mexico (MMVR) 19-09N 096-11W
Oct 23, 2019 - 04:43 PM EDT / 2019.10.23 2043 UTC
Wind: from the NNE (020 degrees) at 12 MPH (10 KT):0
Visibility: 7 mile(s):0
Sky conditions: overcast
Weather: Towering cumulus clouds observed
Temperature: 80 F (27 C)
Dew Point: 73 F (23 C)
Relative Humidity: 78%
Pressure (altimeter): 29.85 in. Hg (1010 hPa)
Pressure tendency: 0.08 inches (2.7 hPa) lower than three hours ago
ob: MMVR 232043Z 02010KT 7SM BKN040 OVC070 27/23 A2985 RMK SLP089 57027 972 8/67/ HZY DSNT TCU W
cycle: 20

Station Type Date Time Source
MMVR TAF 2019/10/23 18:50 UTC NOAA

TAF MMVR 231643Z 2318/2418 34015KT P6SM SCT020CB BKN100 BKN230 TX30/2320Z TN23/2412Z
FM232000 30015KT P6SM BKN020CB OVC080
TEMPO 2321/2401 3SM TSRA
BECMG 2402/2403 02010KT 6SM -RA
TEMPO 2402/2406 4SM RA
FM241000 00000KT P6SM TS SCT020CB BKN100 OVC250
FM241500 05010KT P6SM SCT020 BKN250

Example: see airport list